Time;durP1;ratioP1;P1;durP2;ratioP2;P2;SDS_P1;SDS_P2;PMS_P1;PMS_P2;Temp;Humidity;BMP_temperature;BMP_pressure;BME280_temperature;BME280_humidity;BME280_pressure;Samples;Min_cycle;Max_cycle;Signal;HPM_P1;HPM_P2
2023/06/30 00:01:48;;;;;;;9.48;6.25;;;23.50;99.90;;;;;;5030707;28;20208;-75
2023/06/30 00:04:22;;;;;;;9.38;7.05;;;23.50;99.90;;;;;;5028900;28;20283;-76
2023/06/30 00:06:51;;;;;;;8.20;6.80;;;23.50;99.90;;;;;;5032434;28;20303;-76
2023/06/30 00:09:19;;;;;;;10.20;8.07;;;23.40;99.90;;;;;;5030614;28;20617;-76
2023/06/30 00:11:45;;;;;;;12.80;8.27;;;23.30;99.90;;;;;;5029620;28;20310;-77
2023/06/30 00:14:10;;;;;;;10.32;8.55;;;23.30;99.90;;;;;;5030278;28;20309;-75
2023/06/30 00:16:36;;;;;;;12.32;9.45;;;23.30;99.90;;;;;;5030486;28;20250;-75
2023/06/30 00:19:02;;;;;;;14.27;9.60;;;23.30;99.90;;;;;;5030414;28;20572;-76
2023/06/30 00:21:28;;;;;;;12.57;9.93;;;23.30;99.90;;;;;;5030136;28;20204;-76
2023/06/30 00:24:01;;;;;;;14.02;10.65;;;23.30;99.90;;;;;;5027037;28;20589;-75
2023/06/30 00:26:28;;;;;;;15.98;10.88;;;23.30;99.90;;;;;;5025558;28;20222;-75
2023/06/30 00:28:54;;;;;;;16.40;11.65;;;23.30;99.90;;;;;;5039216;28;20180;-76
2023/06/30 00:31:20;;;;;;;16.83;11.43;;;23.20;99.90;;;;;;5035301;28;20770;-76
2023/06/30 00:33:46;;;;;;;16.88;11.48;;;23.20;99.90;;;;;;5033458;28;20231;-76
2023/06/30 00:36:11;;;;;;;15.05;11.38;;;23.20;99.90;;;;;;5034102;28;20584;-76
2023/06/30 00:38:37;;;;;;;15.98;10.40;;;23.10;99.90;;;;;;5034447;28;20283;-76
2023/06/30 00:41:03;;;;;;;17.08;11.80;;;23.00;99.90;;;;;;5034651;28;20180;-75
2023/06/30 00:43:28;;;;;;;14.70;11.32;;;22.90;99.90;;;;;;5030085;28;20223;-76
2023/06/30 00:45:54;;;;;;;19.67;13.15;;;22.80;99.90;;;;;;5037182;28;20212;-75
2023/06/30 00:48:20;;;;;;;18.02;12.45;;;22.80;99.90;;;;;;5034118;28;20204;-77
2023/06/30 00:50:46;;;;;;;16.33;11.25;;;22.70;99.90;;;;;;5030809;28;20219;-74
2023/06/30 00:53:13;;;;;;;16.55;12.02;;;22.60;99.90;;;;;;5037816;28;20171;-76
2023/06/30 00:55:40;;;;;;;17.02;12.07;;;22.60;99.90;;;;;;5033176;28;20718;-76
2023/06/30 00:58:05;;;;;;;16.92;11.93;;;22.60;99.90;;;;;;5036189;28;20663;-76
2023/06/30 01:00:31;;;;;;;17.75;12.70;;;22.50;99.90;;;;;;5035803;28;20224;-76
2023/06/30 01:03:09;;;;;;;19.30;13.30;;;22.50;99.90;;;;;;5035969;28;20262;-76
2023/06/30 01:06:00;;;;;;;20.30;13.80;;;22.40;99.90;;;;;;5030740;28;20208;-78
2023/06/30 01:08:47;;;;;;;21.38;14.05;;;22.40;99.90;;;;;;5029582;28;20196;-75
2023/06/30 01:11:14;;;;;;;21.15;14.55;;;22.30;99.90;;;;;;5018410;28;20193;-75
2023/06/30 01:13:41;;;;;;;20.30;14.95;;;22.20;99.90;;;;;;5033942;28;20208;-75
2023/06/30 01:16:09;;;;;;;21.67;14.48;;;22.20;99.90;;;;;;5033191;28;20215;-75
2023/06/30 01:18:36;;;;;;;19.55;14.10;;;22.20;99.90;;;;;;5032087;28;20262;-76
2023/06/30 01:21:04;;;;;;;23.52;14.68;;;22.20;99.90;;;;;;5031803;28;20568;-76
2023/06/30 01:23:41;;;;;;;22.70;15.15;;;22.10;99.90;;;;;;5033230;28;20176;-78
2023/06/30 01:26:07;;;;;;;20.73;13.68;;;22.00;99.90;;;;;;5031107;28;20204;-76
2023/06/30 01:28:34;;;;;;;20.55;14.88;;;21.90;99.90;;;;;;5032023;28;20224;-76
2023/06/30 01:31:00;;;;;;;20.48;14.75;;;21.90;99.90;;;;;;5036138;28;20204;-76
2023/06/30 01:33:27;;;;;;;24.02;16.10;;;21.90;99.90;;;;;;5031798;28;20699;-76
2023/06/30 01:35:53;;;;;;;23.15;14.98;;;21.90;99.90;;;;;;5036655;28;20231;-75
2023/06/30 01:38:19;;;;;;;22.58;14.77;;;21.90;99.90;;;;;;5035838;28;20196;-76
2023/06/30 01:40:46;;;;;;;22.50;14.68;;;21.90;99.90;;;;;;5028645;28;20219;-78
2023/06/30 01:43:13;;;;;;;22.42;15.25;;;21.80;99.90;;;;;;5034542;28;20297;-76
2023/06/30 01:45:40;;;;;;;20.83;14.85;;;21.90;99.90;;;;;;5032642;28;20212;-75
2023/06/30 01:48:06;;;;;;;21.90;15.68;;;21.90;99.90;;;;;;5029879;28;20259;-75
2023/06/30 01:50:32;;;;;;;21.42;15.73;;;21.80;99.90;;;;;;5031323;28;20172;-76
2023/06/30 01:52:59;;;;;;;19.30;14.95;;;21.80;99.90;;;;;;5032275;28;20172;-76
2023/06/30 01:55:26;;;;;;;23.27;15.30;;;21.80;99.90;;;;;;5032421;28;20713;-76
2023/06/30 01:57:52;;;;;;;22.52;16.17;;;21.80;99.90;;;;;;5028943;28;20216;-75
2023/06/30 02:00:18;;;;;;;23.15;16.42;;;21.70;99.90;;;;;;5032582;28;20208;-76
2023/06/30 02:02:43;;;;;;;21.13;14.57;;;21.70;99.90;;;;;;5031295;28;20262;-76
2023/06/30 02:05:09;;;;;;;22.90;16.20;;;21.70;99.90;;;;;;5028778;28;20200;-76
2023/06/30 02:07:35;;;;;;;23.58;15.77;;;21.70;99.90;;;;;;5031336;28;20638;-76
2023/06/30 02:10:01;;;;;;;22.15;15.30;;;21.60;99.90;;;;;;5025479;28;20216;-77
2023/06/30 02:12:27;;;;;;;21.00;15.75;;;21.60;99.90;;;;;;5032463;28;20250;-77
2023/06/30 02:14:53;;;;;;;24.70;16.02;;;21.60;99.90;;;;;;5034720;28;20220;-73
2023/06/30 02:17:31;;;;;;;24.33;16.40;;;21.60;99.90;;;;;;5035325;28;20190;-74
2023/06/30 02:19:57;;;;;;;21.83;15.70;;;21.60;99.90;;;;;;5032860;28;20258;-74
2023/06/30 02:22:23;;;;;;;21.45;15.68;;;21.70;99.90;;;;;;5030952;28;20212;-76
2023/06/30 02:24:48;;;;;;;22.63;16.15;;;21.60;99.90;;;;;;5033612;28;20857;-74
2023/06/30 02:27:16;;;;;;;21.98;15.93;;;21.60;99.90;;;;;;5031833;28;20350;-75
2023/06/30 02:29:42;;;;;;;22.48;16.33;;;21.60;99.90;;;;;;5032016;28;20269;-76
2023/06/30 02:32:08;;;;;;;24.85;16.77;;;21.60;99.90;;;;;;5032216;28;20206;-75
2023/06/30 02:34:34;;;;;;;23.63;16.80;;;21.60;99.90;;;;;;5031660;28;20208;-78
2023/06/30 02:37:00;;;;;;;24.95;17.42;;;21.50;99.90;;;;;;5032216;28;20208;-76
2023/06/30 02:39:26;;;;;;;24.40;16.00;;;21.50;99.90;;;;;;5030576;28;20226;-77
2023/06/30 02:41:52;;;;;;;22.92;17.30;;;21.50;99.90;;;;;;5028638;28;20213;-74
2023/06/30 02:44:17;;;;;;;24.10;15.57;;;21.50;99.90;;;;;;5022080;28;20751;-76
2023/06/30 02:46:44;;;;;;;26.13;18.20;;;21.40;99.90;;;;;;5024401;28;20762;-76
2023/06/30 02:49:10;;;;;;;24.13;17.83;;;21.50;99.90;;;;;;5017355;28;20275;-75
2023/06/30 02:51:35;;;;;;;21.13;16.67;;;21.40;99.90;;;;;;5021870;28;20228;-76
2023/06/30 02:54:01;;;;;;;25.42;17.45;;;21.40;99.90;;;;;;5026533;28;20239;-76
2023/06/30 02:56:26;;;;;;;24.63;18.25;;;21.40;99.90;;;;;;5022977;28;20195;-74
2023/06/30 02:58:52;;;;;;;22.10;16.92;;;21.30;99.90;;;;;;5024900;28;20185;-73
2023/06/30 03:01:21;;;;;;;22.90;16.45;;;21.40;99.90;;;;;;5024744;28;20208;-75
2023/06/30 03:03:47;;;;;;;25.17;16.75;;;21.30;99.90;;;;;;5025881;28;20212;-75
2023/06/30 03:06:13;;;;;;;22.23;15.93;;;21.30;99.90;;;;;;5025461;28;20311;-75
2023/06/30 03:08:38;;;;;;;23.88;16.75;;;21.30;99.90;;;;;;5022870;28;20204;-74
2023/06/30 03:11:04;;;;;;;26.17;16.40;;;21.40;99.90;;;;;;5027340;28;20180;-73
2023/06/30 03:13:29;;;;;;;22.52;16.83;;;21.40;99.90;;;;;;5028667;28;20212;-75
2023/06/30 03:15:55;;;;;;;23.40;17.13;;;21.40;99.90;;;;;;5035568;28;20678;-75
2023/06/30 03:18:21;;;;;;;22.00;16.05;;;21.40;99.90;;;;;;5030111;28;20209;-75
2023/06/30 03:20:47;;;;;;;22.85;17.00;;;21.30;99.90;;;;;;5026594;28;20219;-75
2023/06/30 03:23:14;;;;;;;22.17;16.58;;;21.30;99.90;;;;;;5026792;28;20285;-75
2023/06/30 03:25:39;;;;;;;26.40;16.88;;;21.40;99.90;;;;;;5022071;28;20296;-76
2023/06/30 03:28:05;;;;;;;27.25;16.80;;;21.40;99.90;;;;;;5021120;28;20351;-74
2023/06/30 03:30:31;;;;;;;27.13;17.08;;;21.40;99.90;;;;;;5028003;28;20641;-76
2023/06/30 03:32:56;;;;;;;20.52;15.05;;;21.40;99.90;;;;;;5023487;28;20208;-75
2023/06/30 03:35:22;;;;;;;21.13;15.20;;;21.40;99.90;;;;;;5022642;28;20596;-75
2023/06/30 03:37:48;;;;;;;22.95;16.52;;;21.50;99.90;;;;;;5025612;28;20258;-75
2023/06/30 03:40:14;;;;;;;22.23;15.60;;;21.50;99.90;;;;;;5022543;28;20229;-76
2023/06/30 03:42:40;;;;;;;26.75;17.27;;;21.50;99.90;;;;;;5025912;28;20212;-76
2023/06/30 03:45:06;;;;;;;23.63;16.98;;;21.50;99.90;;;;;;5024120;28;20212;-74
2023/06/30 03:47:32;;;;;;;21.63;16.23;;;21.50;99.90;;;;;;5026831;28;20231;-77
2023/06/30 03:49:57;;;;;;;23.63;16.45;;;21.60;99.90;;;;;;5025423;28;20176;-75
2023/06/30 03:52:23;;;;;;;22.15;15.48;;;21.50;99.90;;;;;;5023484;28;20741;-75
2023/06/30 03:54:50;;;;;;;21.27;15.00;;;21.50;99.90;;;;;;5027779;28;20994;-75
2023/06/30 03:57:16;;;;;;;23.77;17.80;;;21.50;99.90;;;;;;5026962;28;20411;-75
2023/06/30 03:59:42;;;;;;;24.17;16.45;;;21.60;99.90;;;;;;5029233;28;20219;-73
2023/06/30 04:02:07;;;;;;;26.52;16.70;;;21.60;99.90;;;;;;5033354;28;20267;-75
2023/06/30 04:04:33;;;;;;;28.85;16.40;;;21.70;99.90;;;;;;5029584;28;20582;-76
2023/06/30 04:06:58;;;;;;;26.65;17.55;;;21.60;99.90;;;;;;5021414;28;20216;-75
2023/06/30 04:09:24;;;;;;;24.45;17.42;;;21.70;99.90;;;;;;5020418;28;20209;-75
2023/06/30 04:11:50;;;;;;;25.27;17.15;;;21.70;99.90;;;;;;5023400;28;20307;-73
2023/06/30 04:14:16;;;;;;;24.58;16.23;;;21.80;99.90;;;;;;5020601;28;20548;-75
2023/06/30 04:16:41;;;;;;;25.42;17.40;;;21.90;99.90;;;;;;5021307;28;20216;-75
2023/06/30 04:19:07;;;;;;;20.27;14.98;;;22.00;99.90;;;;;;5018163;28;20200;-75
2023/06/30 04:21:33;;;;;;;24.27;16.08;;;22.10;99.90;;;;;;5028364;28;20205;-75
2023/06/30 04:23:58;;;;;;;21.00;15.82;;;22.30;99.90;;;;;;5022954;28;20212;-73
2023/06/30 04:26:24;;;;;;;17.88;14.77;;;22.40;99.90;;;;;;5024750;28;20201;-75
2023/06/30 04:28:49;;;;;;;20.38;15.00;;;22.60;99.90;;;;;;5027036;28;20200;-75
2023/06/30 04:31:15;;;;;;;21.63;15.48;;;22.90;99.90;;;;;;5023770;28;20204;-76
2023/06/30 04:33:41;;;;;;;18.55;14.57;;;23.00;99.90;;;;;;5028530;28;20702;-76
2023/06/30 04:36:07;;;;;;;21.00;14.75;;;23.10;99.90;;;;;;5028106;28;20212;-75
2023/06/30 04:38:33;;;;;;;20.00;14.52;;;23.20;99.90;;;;;;5027066;28;20695;-76
2023/06/30 04:40:59;;;;;;;20.25;13.75;;;23.70;99.90;;;;;;5028710;28;20185;-75
2023/06/30 04:43:24;;;;;;;17.15;12.88;;;24.70;99.90;;;;;;5028853;28;20738;-77
2023/06/30 04:45:51;;;;;;;15.88;12.60;;;25.00;99.90;;;;;;5029465;28;20697;-76
2023/06/30 04:48:16;;;;;;;15.95;12.32;;;25.60;99.90;;;;;;5018545;28;20208;-76
2023/06/30 04:50:42;;;;;;;15.10;11.77;;;26.00;99.90;;;;;;5018348;28;20322;-75
2023/06/30 04:53:08;;;;;;;19.33;13.18;;;26.00;99.90;;;;;;5019689;28;20176;-75
2023/06/30 04:55:34;;;;;;;16.52;12.15;;;26.70;99.90;;;;;;5026225;28;20251;-76
2023/06/30 04:57:59;;;;;;;16.85;13.30;;;26.90;99.90;;;;;;5028408;28;20211;-77
2023/06/30 05:00:26;;;;;;;18.70;12.77;;;26.90;99.90;;;;;;5029512;28;20212;-76
2023/06/30 05:02:52;;;;;;;15.68;12.70;;;27.10;99.90;;;;;;5030037;28;20223;-75
2023/06/30 05:05:18;;;;;;;17.38;13.45;;;27.10;99.90;;;;;;5029771;28;20658;-77
2023/06/30 05:07:45;;;;;;;17.38;12.93;;;27.10;99.90;;;;;;5029673;28;20239;-76
2023/06/30 05:10:11;;;;;;;16.83;12.95;;;27.40;99.90;;;;;;5028177;28;20204;-75
2023/06/30 05:12:37;;;;;;;18.60;13.10;;;28.10;99.90;;;;;;5029896;28;20201;-78
2023/06/30 05:15:03;;;;;;;16.10;12.82;;;28.90;99.90;;;;;;5030367;28;20216;-77
2023/06/30 05:17:28;;;;;;;15.02;12.02;;;29.30;99.90;;;;;;5033463;28;20196;-78
2023/06/30 05:19:54;;;;;;;15.93;12.40;;;29.50;99.90;;;;;;5033804;28;20727;-75
2023/06/30 05:22:20;;;;;;;15.30;12.32;;;29.30;99.90;;;;;;5031837;28;20217;-76
2023/06/30 05:24:46;;;;;;;16.30;12.57;;;29.90;99.90;;;;;;5032996;28;20204;-77
2023/06/30 05:27:11;;;;;;;14.45;12.18;;;30.20;99.90;;;;;;5032761;28;20278;-76
2023/06/30 05:29:37;;;;;;;15.27;12.70;;;30.10;99.90;;;;;;5032612;28;20270;-76
2023/06/30 05:32:03;;;;;;;15.27;12.82;;;30.70;99.90;;;;;;5033504;28;20188;-75
2023/06/30 05:34:29;;;;;;;16.15;13.48;;;31.00;99.90;;;;;;5024986;28;20205;-75
2023/06/30 05:36:55;;;;;;;16.38;13.10;;;31.40;99.90;;;;;;5033467;28;20219;-74
2023/06/30 05:39:22;;;;;;;21.05;15.82;;;31.00;99.90;;;;;;5033338;28;20207;-75
2023/06/30 05:41:47;;;;;;;17.90;14.43;;;31.10;99.90;;;;;;5033124;28;20212;-76
2023/06/30 05:44:13;;;;;;;17.92;14.02;;;31.10;99.90;;;;;;5031921;28;20193;-76
2023/06/30 05:46:39;;;;;;;17.60;13.98;;;31.30;99.90;;;;;;5032767;28;20258;-75
2023/06/30 05:49:07;;;;;;;18.70;15.07;;;31.70;99.90;;;;;;5032723;28;20222;-73
2023/06/30 05:51:34;;;;;;;17.92;14.13;;;31.80;99.90;;;;;;5031475;28;20211;-74
2023/06/30 05:54:01;;;;;;;16.70;13.90;;;31.40;99.90;;;;;;5028638;28;20208;-74
2023/06/30 05:56:27;;;;;;;16.58;14.18;;;31.20;99.90;;;;;;5032105;28;20204;-75
2023/06/30 05:58:53;;;;;;;18.15;15.18;;;30.80;99.90;;;;;;5033100;28;20186;-74
2023/06/30 06:01:20;;;;;;;17.13;14.25;;;30.70;99.90;;;;;;5032507;28;20208;-75
2023/06/30 06:03:46;;;;;;;21.58;16.25;;;29.90;99.90;;;;;;5031147;28;20694;-76
2023/06/30 06:06:11;;;;;;;21.08;15.85;;;29.30;99.90;;;;;;5030778;28;20239;-77
2023/06/30 06:08:43;;;;;;;21.20;15.70;;;28.70;99.90;;;;;;5032387;28;20196;-76
2023/06/30 06:11:09;;;;;;;19.17;15.38;;;28.20;99.90;;;;;;5031304;28;20180;-75
2023/06/30 06:13:36;;;;;;;24.67;15.27;;;27.80;99.90;;;;;;5032355;28;20218;-76
2023/06/30 06:16:03;;;;;;;24.38;15.48;;;27.50;99.90;;;;;;5030672;28;20282;-76
2023/06/30 06:18:29;;;;;;;23.90;15.57;;;27.20;99.90;;;;;;5031990;28;20243;-76
2023/06/30 06:20:56;;;;;;;20.63;14.25;;;26.80;99.90;;;;;;5032114;28;20255;-74
2023/06/30 06:23:22;;;;;;;18.63;13.45;;;26.80;99.90;;;;;;5032203;28;20187;-76
2023/06/30 06:25:48;;;;;;;17.33;13.02;;;26.70;99.90;;;;;;5032123;28;20196;-76
2023/06/30 06:28:14;;;;;;;20.05;13.57;;;26.30;99.90;;;;;;5031884;28;20224;-77
2023/06/30 06:30:40;;;;;;;18.02;13.80;;;26.20;99.90;;;;;;5030818;28;20948;-76
2023/06/30 06:33:05;;;;;;;18.75;14.65;;;26.00;99.90;;;;;;5031799;28;20208;-76
2023/06/30 06:35:31;;;;;;;19.90;14.57;;;25.90;99.90;;;;;;5033629;28;20184;-75
2023/06/30 06:37:57;;;;;;;18.15;14.45;;;25.80;99.90;;;;;;5031263;28;20216;-75
2023/06/30 06:40:22;;;;;;;21.73;14.50;;;25.90;99.90;;;;;;5032094;28;20216;-76
2023/06/30 06:42:48;;;;;;;21.90;15.32;;;26.00;99.90;;;;;;5032022;28;20216;-76
2023/06/30 06:45:14;;;;;;;21.33;14.52;;;26.10;99.90;;;;;;5029316;28;20215;-76
2023/06/30 06:48:16;;;;;;;19.17;14.20;;;26.10;99.90;;;;;;5030319;28;20230;-75
2023/06/30 06:50:42;;;;;;;19.08;13.93;;;26.20;99.90;;;;;;5026966;28;20239;-76
2023/06/30 06:53:08;;;;;;;17.52;12.45;;;26.20;99.90;;;;;;5032082;28;20549;-74
2023/06/30 06:55:34;;;;;;;19.02;12.85;;;26.20;99.90;;;;;;5029526;28;20212;-76
2023/06/30 06:57:59;;;;;;;20.25;13.90;;;26.00;99.90;;;;;;5031474;28;20236;-76
2023/06/30 07:00:25;;;;;;;16.85;12.70;;;25.80;99.90;;;;;;5031057;28;20291;-77
2023/06/30 07:02:52;;;;;;;20.40;13.57;;;25.60;99.90;;;;;;5031717;28;20216;-76
2023/06/30 07:05:18;;;;;;;17.75;12.23;;;25.50;99.90;;;;;;5034221;28;20216;-76
2023/06/30 07:07:43;;;;;;;21.73;13.05;;;25.40;99.90;;;;;;5031047;28;20274;-73
2023/06/30 07:10:10;;;;;;;19.65;13.43;;;25.10;99.90;;;;;;5029336;28;20628;-74
2023/06/30 07:12:35;;;;;;;16.95;12.57;;;25.00;99.90;;;;;;5029705;28;20208;-75
2023/06/30 07:15:01;;;;;;;16.95;12.80;;;24.80;99.90;;;;;;5029089;28;20215;-76
2023/06/30 07:17:27;;;;;;;18.00;13.30;;;24.70;99.90;;;;;;5030216;28;20189;-75
2023/06/30 07:19:53;;;;;;;18.25;13.10;;;24.50;99.90;;;;;;5032732;28;20268;-76
2023/06/30 07:22:18;;;;;;;18.17;12.95;;;24.50;99.90;;;;;;5029820;28;20650;-76
2023/06/30 07:24:44;;;;;;;20.30;14.00;;;24.40;99.90;;;;;;5028991;28;20205;-73
2023/06/30 07:27:10;;;;;;;23.23;14.57;;;24.40;99.90;;;;;;5030261;28;20660;-76
2023/06/30 07:29:35;;;;;;;19.75;13.43;;;24.40;99.90;;;;;;5031270;28;20226;-76
2023/06/30 07:32:01;;;;;;;20.90;14.32;;;24.30;99.90;;;;;;5027664;28;20243;-75
2023/06/30 07:34:29;;;;;;;18.75;13.98;;;24.40;99.90;;;;;;5022433;28;20722;-76
2023/06/30 07:36:54;;;;;;;18.27;13.45;;;24.40;99.90;;;;;;5036023;28;20262;-73
2023/06/30 07:39:20;;;;;;;20.67;14.20;;;24.30;99.90;;;;;;5026368;28;20216;-76
2023/06/30 07:41:46;;;;;;;21.17;14.57;;;24.30;99.90;;;;;;5027378;28;20296;-76
2023/06/30 07:44:11;;;;;;;20.60;13.98;;;24.10;99.90;;;;;;5026558;28;20650;-76
2023/06/30 07:46:38;;;;;;;20.65;14.55;;;24.10;99.90;;;;;;5028898;28;20215;-76
2023/06/30 07:49:04;;;;;;;19.92;14.57;;;24.20;99.90;;;;;;5024942;28;20295;-76
2023/06/30 07:51:30;;;;;;;19.98;14.13;;;24.30;99.90;;;;;;5030307;28;20212;-76
2023/06/30 07:53:56;;;;;;;21.00;15.27;;;24.30;99.90;;;;;;5026555;28;20214;-76
2023/06/30 07:56:22;;;;;;;21.35;15.15;;;24.30;99.90;;;;;;5027687;28;20706;-75
2023/06/30 07:58:48;;;;;;;21.35;14.77;;;24.20;99.90;;;;;;5027564;28;20192;-76
2023/06/30 08:01:14;;;;;;;18.20;13.73;;;24.30;99.90;;;;;;5027054;28;20627;-77
2023/06/30 08:03:39;;;;;;;23.55;15.48;;;24.30;99.90;;;;;;5028049;28;20200;-76
2023/06/30 08:06:05;;;;;;;18.27;14.48;;;24.30;99.90;;;;;;5028973;28;20226;-76
2023/06/30 08:08:31;;;;;;;22.40;15.10;;;24.00;99.90;;;;;;5028441;28;20206;-76
2023/06/30 08:10:58;;;;;;;24.83;18.15;;;24.00;99.90;;;;;;5029769;28;20582;-75
2023/06/30 08:13:24;;;;;;;19.42;13.45;;;24.20;99.90;;;;;;5027506;28;20219;-77
2023/06/30 08:15:50;;;;;;;21.23;15.20;;;24.30;99.90;;;;;;5025283;28;20718;-78
2023/06/30 08:18:16;;;;;;;19.48;14.48;;;24.40;99.90;;;;;;5027494;28;20842;-80
2023/06/30 08:20:41;;;;;;;19.77;14.88;;;24.60;99.90;;;;;;5028341;28;20208;-76
2023/06/30 08:23:07;;;;;;;19.92;14.10;;;24.90;99.90;;;;;;5026338;28;20218;-75
2023/06/30 08:25:33;;;;;;;23.98;15.38;;;25.20;99.90;;;;;;5027155;28;20220;-76
2023/06/30 08:27:58;;;;;;;21.70;15.15;;;25.70;99.90;;;;;;5025156;28;20217;-75
2023/06/30 08:30:24;;;;;;;24.15;17.02;;;26.20;99.90;;;;;;5027169;28;20231;-76
2023/06/30 08:32:49;;;;;;;24.23;18.35;;;26.70;99.90;;;;;;5025334;28;20212;-76
2023/06/30 08:35:15;;;;;;;22.92;16.63;;;26.90;99.90;;;;;;5026621;28;20644;-76
2023/06/30 08:37:42;;;;;;;18.35;14.05;;;27.00;99.90;;;;;;5027666;28;20287;-75
2023/06/30 08:40:09;;;;;;;19.40;13.75;;;27.00;99.90;;;;;;5025900;28;20635;-76
2023/06/30 08:42:36;;;;;;;21.05;15.27;;;26.60;99.90;;;;;;5027625;28;20342;-77
2023/06/30 08:45:03;;;;;;;18.38;14.55;;;26.70;99.90;;;;;;5022351;28;20204;-74
2023/06/30 08:47:32;;;;;;;19.98;14.73;;;26.80;99.90;;;;;;5025051;28;20287;-74
2023/06/30 08:49:58;;;;;;;19.70;15.05;;;26.80;99.90;;;;;;5023327;28;20290;-71
2023/06/30 08:52:25;;;;;;;19.80;15.02;;;27.20;99.90;;;;;;5029404;28;20687;-75
2023/06/30 08:54:50;;;;;;;21.58;14.75;;;27.30;99.90;;;;;;5041555;28;20572;-74
2023/06/30 08:57:17;;;;;;;22.48;14.93;;;27.40;99.90;;;;;;5031210;28;20263;-75
2023/06/30 08:59:43;;;;;;;20.45;14.65;;;27.00;99.90;;;;;;5028401;28;20215;-75
2023/06/30 09:02:13;;;;;;;20.30;14.48;;;26.80;99.90;;;;;;5029330;28;20187;-75
2023/06/30 09:04:40;;;;;;;23.15;15.23;;;26.80;99.90;;;;;;5030005;28;20211;-74
2023/06/30 09:07:15;;;;;;;22.70;14.90;;;26.50;99.90;;;;;;5027285;28;20220;-75
2023/06/30 09:09:43;;;;;;;23.63;16.67;;;26.20;99.90;;;;;;5028460;28;20203;-77
2023/06/30 09:12:10;;;;;;;24.05;18.90;;;26.00;99.90;;;;;;5030961;28;20220;-74
2023/06/30 09:14:39;;;;;;;23.92;17.52;;;25.80;99.90;;;;;;5029375;28;20208;-75
2023/06/30 09:17:05;;;;;;;25.67;17.58;;;25.90;99.90;;;;;;5027916;28;20579;-73
2023/06/30 09:19:31;;;;;;;26.02;16.77;;;25.70;99.90;;;;;;5028200;28;20707;-73
2023/06/30 09:21:57;;;;;;;22.70;17.65;;;25.70;99.90;;;;;;5028898;28;20200;-72
2023/06/30 09:24:23;;;;;;;22.55;17.25;;;25.50;99.90;;;;;;5029545;28;20254;-73
2023/06/30 09:26:51;;;;;;;24.35;17.55;;;25.50;99.90;;;;;;5030536;28;20228;-73
2023/06/30 09:29:20;;;;;;;23.20;17.48;;;25.30;99.90;;;;;;5031834;28;20205;-73
2023/06/30 09:31:50;;;;;;;25.30;17.60;;;25.30;99.90;;;;;;5032026;28;20634;-73
2023/06/30 09:34:16;;;;;;;25.02;18.50;;;25.40;99.90;;;;;;5030653;28;20270;-72
2023/06/30 09:36:48;;;;;;;24.88;18.90;;;25.30;99.90;;;;;;5032767;28;20204;-74
2023/06/30 09:39:14;;;;;;;38.92;26.73;;;25.10;99.90;;;;;;5027735;28;20299;-72
2023/06/30 09:41:43;;;;;;;27.80;19.50;;;24.90;99.90;;;;;;5026024;28;20211;-72
2023/06/30 09:44:10;;;;;;;30.05;21.42;;;24.80;99.90;;;;;;5031902;28;20176;-72
2023/06/30 09:46:36;;;;;;;29.67;21.33;;;24.60;99.90;;;;;;5032624;28;20222;-72
2023/06/30 09:49:04;;;;;;;29.27;20.70;;;24.50;99.90;;;;;;5033437;28;20694;-73
2023/06/30 09:51:34;;;;;;;33.55;21.80;;;24.40;99.90;;;;;;5031228;28;20197;-73
2023/06/30 09:54:00;;;;;;;29.98;21.33;;;24.40;99.90;;;;;;5030037;28;20224;-73
2023/06/30 09:56:29;;;;;;;32.50;22.65;;;24.20;99.90;;;;;;5026959;28;20197;-73
2023/06/30 09:58:59;;;;;;;33.20;22.33;;;24.10;99.90;;;;;;5032414;28;20180;-74
2023/06/30 10:01:24;;;;;;;32.38;22.52;;;24.00;99.90;;;;;;5030353;28;20217;-76
2023/06/30 10:03:52;;;;;;;35.45;23.63;;;23.90;99.90;;;;;;5031462;28;20208;-76
2023/06/30 10:06:21;;;;;;;33.38;24.00;;;23.70;99.90;;;;;;5029789;28;20220;-76
2023/06/30 10:08:49;;;;;;;29.50;22.35;;;23.90;99.90;;;;;;5032804;28;20240;-77
2023/06/30 10:11:15;;;;;;;33.83;21.90;;;23.90;99.90;;;;;;5045313;28;20176;-76
2023/06/30 10:13:43;;;;;;;37.33;24.30;;;24.00;99.90;;;;;;5026889;28;20228;-76
2023/06/30 10:16:10;;;;;;;32.25;23.02;;;24.10;99.90;;;;;;5034061;28;20283;-75
2023/06/30 10:18:40;;;;;;;32.35;22.15;;;24.10;99.90;;;;;;5025655;28;20703;-78
2023/06/30 10:21:06;;;;;;;29.73;22.45;;;24.00;99.90;;;;;;5026049;28;20270;-75
2023/06/30 10:23:35;;;;;;;31.25;21.88;;;24.10;99.90;;;;;;5029593;28;20650;-75
2023/06/30 10:26:04;;;;;;;29.95;20.92;;;24.10;99.90;;;;;;5029691;28;20254;-75
2023/06/30 10:28:35;;;;;;;29.00;20.63;;;24.20;99.90;;;;;;5024543;28;20296;-74
2023/06/30 10:31:01;;;;;;;31.90;21.83;;;24.20;99.90;;;;;;5030707;28;20291;-74
2023/06/30 10:33:27;;;;;;;30.48;20.90;;;24.10;99.90;;;;;;5029821;28;20211;-74
2023/06/30 10:35:53;;;;;;;27.05;20.08;;;24.00;99.90;;;;;;5030944;28;20698;-74
2023/06/30 10:38:19;;;;;;;29.58;20.52;;;23.80;99.90;;;;;;5030261;28;20188;-75
2023/06/30 10:40:47;;;;;;;27.90;20.27;;;23.60;99.90;;;;;;5033977;28;20257;-74
2023/06/30 10:43:13;;;;;;;28.35;19.88;;;23.30;99.90;;;;;;5029707;28;20200;-74
2023/06/30 10:46:07;;;;;;;28.98;19.50;;;23.10;99.90;;;;;;5030543;28;20224;-75
2023/06/30 10:48:33;;;;;;;29.67;19.30;;;23.00;99.90;;;;;;5028450;28;20208;-78
2023/06/30 10:50:59;;;;;;;27.05;19.20;;;23.00;99.90;;;;;;5031526;28;20262;-77
2023/06/30 10:53:26;;;;;;;29.42;20.23;;;23.00;99.90;;;;;;5023391;28;20184;-76
2023/06/30 10:55:58;;;;;;;29.55;20.02;;;22.90;99.90;;;;;;5025628;28;20184;-77
2023/06/30 10:58:26;;;;;;;30.48;21.58;;;22.90;99.90;;;;;;5026463;28;20601;-77
2023/06/30 11:01:05;;;;;;;29.38;19.77;;;22.90;99.90;;;;;;5027299;28;20299;-78
2023/06/30 11:03:57;;;;;;;30.15;20.55;;;22.90;99.90;;;;;;5024998;28;20200;-75
2023/06/30 11:06:24;;;;;;;29.38;20.50;;;23.00;99.90;;;;;;5018369;28;20216;-74
2023/06/30 11:09:16;;;;;;;31.70;21.10;;;22.90;99.90;;;;;;5024123;28;20290;-74
2023/06/30 11:11:50;;;;;;;31.77;22.30;;;22.90;99.90;;;;;;5025565;28;20211;-74
2023/06/30 11:14:31;;;;;;;35.80;20.90;;;22.90;99.90;;;;;;5027270;28;20191;-75
2023/06/30 11:17:07;;;;;;;31.05;20.52;;;22.70;99.90;;;;;;5028907;28;20702;-80
2023/06/30 11:19:35;;;;;;;33.53;21.77;;;22.70;99.90;;;;;;5028672;28;20732;-77
2023/06/30 11:22:22;;;;;;;28.75;20.77;;;22.70;99.90;;;;;;5030023;28;20204;-74
2023/06/30 11:24:48;;;;;;;30.73;20.95;;;22.70;99.90;;;;;;5027432;28;20204;-74
2023/06/30 11:27:15;;;;;;;29.70;20.75;;;22.70;99.90;;;;;;5027682;28;20238;-74
2023/06/30 11:29:41;;;;;;;30.25;20.52;;;22.70;99.90;;;;;;5030303;28;21651;-74
2023/06/30 11:32:08;;;;;;;32.30;21.58;;;22.80;99.90;;;;;;5024322;28;20809;-71
2023/06/30 11:34:33;;;;;;;29.45;21.13;;;22.80;99.90;;;;;;5025755;28;20694;-74
2023/06/30 11:37:06;;;;;;;25.67;19.02;;;22.80;99.90;;;;;;5025696;28;20234;-75
2023/06/30 11:39:34;;;;;;;31.45;20.70;;;22.90;99.90;;;;;;5025557;28;20783;-72
2023/06/30 11:41:59;;;;;;;26.85;19.35;;;23.00;99.90;;;;;;5021150;28;20652;-76
2023/06/30 11:44:25;;;;;;;29.38;19.65;;;23.00;99.90;;;;;;5026367;28;20259;-74
2023/06/30 11:46:51;;;;;;;27.98;19.10;;;23.20;99.90;;;;;;5029232;28;20222;-75
2023/06/30 11:49:17;;;;;;;32.05;22.50;;;23.50;99.90;;;;;;5022901;28;20208;-75
2023/06/30 11:51:42;;;;;;;29.13;20.48;;;23.50;99.90;;;;;;5027246;28;20219;-75
2023/06/30 11:54:08;;;;;;;32.83;21.80;;;23.40;99.90;;;;;;5028792;28;20204;-74
2023/06/30 11:56:38;;;;;;;18.95;13.15;;;23.30;99.90;;;;;;5027947;28;20580;-75
2023/06/30 11:59:05;;;;;;;13.32;10.05;;;23.20;99.90;;;;;;5027594;28;20180;-74
2023/06/30 12:01:30;;;;;;;10.93;7.95;;;23.00;99.90;;;;;;5028262;28;20216;-75
2023/06/30 12:04:06;;;;;;;9.73;7.00;;;23.00;99.90;;;;;;5027788;28;20281;-75
2023/06/30 12:06:32;;;;;;;12.80;6.88;;;23.10;99.90;;;;;;5041984;28;20294;-75
2023/06/30 12:08:57;;;;;;;6.45;5.13;;;23.00;99.90;;;;;;5027935;28;20366;-76
2023/06/30 12:11:23;;;;;;;7.97;5.18;;;22.90;99.90;;;;;;5020859;28;20195;-76
2023/06/30 12:13:50;;;;;;;7.07;5.70;;;22.70;99.90;;;;;;5023788;28;20694;-76
2023/06/30 12:16:15;;;;;;;8.18;5.20;;;22.60;99.90;;;;;;5025449;28;20204;-76
2023/06/30 12:18:44;;;;;;;7.72;5.35;;;22.50;99.90;;;;;;5027828;28;20686;-75
2023/06/30 12:21:12;;;;;;;6.68;5.15;;;22.40;99.90;;;;;;5024936;28;20207;-75
2023/06/30 12:23:45;;;;;;;7.07;5.28;;;22.40;99.90;;;;;;5027284;28;20191;-73
2023/06/30 12:26:11;;;;;;;7.40;5.38;;;22.40;99.90;;;;;;5030051;28;20322;-75
2023/06/30 12:28:38;;;;;;;6.43;4.90;;;22.50;99.90;;;;;;5028878;28;20312;-76